Aberdeen, Mississippi
Current Conditions -  °F | °C
As of 4:35 AM on Thursday 18 Dec 2014 (Local Time) from KM40 Reporting Station
Overcast Overcast  
Wind Chill:   Ceiling: 7500
Heat Index:   Visibility: 10mi
Dew Point: -2°   Wind: 6mph
Humidity: 57%   Direction: 30°NNE
Pressure: 30.25"   Gusts: NA
Location:  33.82°N, 88.54°W
Report Text: KM40 181035Z AUTO 03005KT 10SM OVC075 06/M02 A3025 RMK AO2
Loading
Personal Weather Stations






























Interactive Weather Map New forecast layout! Learn more

10-Day Weather Forecast

Advertisements
Track Severe Weather on mobile